sensor_id;sensor_type;location;lat;lon;timestamp;pressure;altitude;pressure_sealevel;temperature;humidity
35435;BME280;21556;55.782;37.528;2023-03-15T00:02:05;99081.22;;;8.93;86.06
35435;BME280;21556;55.782;37.528;2023-03-15T00:04:31;99081.94;;;8.81;89.68
35435;BME280;21556;55.782;37.528;2023-03-15T00:06:57;99082.50;;;9.23;84.38
35435;BME280;21556;55.782;37.528;2023-03-15T00:09:24;99071.69;;;8.97;87.77
35435;BME280;21556;55.782;37.528;2023-03-15T00:11:52;99081.75;;;9.34;84.17
35435;BME280;21556;55.782;37.528;2023-03-15T00:14:21;99079.38;;;8.83;86.61
35435;BME280;21556;55.782;37.528;2023-03-15T00:16:48;99074.72;;;9.30;86.60
35435;BME280;21556;55.782;37.528;2023-03-15T00:19:17;99074.97;;;9.52;82.36
35435;BME280;21556;55.782;37.528;2023-03-15T00:21:43;99083.28;;;9.15;85.88
35435;BME280;21556;55.782;37.528;2023-03-15T00:24:09;99068.78;;;9.45;85.01
35435;BME280;21556;55.782;37.528;2023-03-15T00:26:36;99083.41;;;9.28;88.12
35435;BME280;21556;55.782;37.528;2023-03-15T00:29:03;99079.75;;;9.12;89.78
35435;BME280;21556;55.782;37.528;2023-03-15T00:31:29;99085.66;;;8.99;90.83
35435;BME280;21556;55.782;37.528;2023-03-15T00:33:55;99069.28;;;9.12;88.96
35435;BME280;21556;55.782;37.528;2023-03-15T00:36:24;99078.03;;;9.15;92.82
35435;BME280;21556;55.782;37.528;2023-03-15T00:38:52;99068.53;;;9.25;91.75
35435;BME280;21556;55.782;37.528;2023-03-15T00:41:21;99072.88;;;8.56;94.42
35435;BME280;21556;55.782;37.528;2023-03-15T00:43:47;99070.31;;;9.26;90.51
35435;BME280;21556;55.782;37.528;2023-03-15T00:46:14;99067.88;;;9.42;90.34
35435;BME280;21556;55.782;37.528;2023-03-15T00:48:41;99065.91;;;9.25;94.20
35435;BME280;21556;55.782;37.528;2023-03-15T00:51:10;99084.00;;;9.05;95.52
35435;BME280;21556;55.782;37.528;2023-03-15T00:53:39;99070.94;;;9.05;96.36
35435;BME280;21556;55.782;37.528;2023-03-15T00:56:10;99077.88;;;9.02;96.73
35435;BME280;21556;55.782;37.528;2023-03-15T00:58:37;99091.03;;;9.11;95.21
35435;BME280;21556;55.782;37.528;2023-03-15T01:01:08;99074.72;;;9.30;95.05
35435;BME280;21556;55.782;37.528;2023-03-15T01:03:36;99075.31;;;9.87;89.53
35435;BME280;21556;55.782;37.528;2023-03-15T01:06:11;99066.97;;;9.39;93.36
35435;BME280;21556;55.782;37.528;2023-03-15T01:08:37;99076.34;;;9.19;95.75
35435;BME280;21556;55.782;37.528;2023-03-15T01:11:05;99072.13;;;9.32;95.28
35435;BME280;21556;55.782;37.528;2023-03-15T01:13:32;99069.41;;;9.24;97.10
35435;BME280;21556;55.782;37.528;2023-03-15T01:15:58;99056.75;;;9.64;93.77
35435;BME280;21556;55.782;37.528;2023-03-15T01:18:24;99053.88;;;9.38;93.69
35435;BME280;21556;55.782;37.528;2023-03-15T01:20:50;99061.69;;;9.36;95.34
35435;BME280;21556;55.782;37.528;2023-03-15T01:23:18;99057.06;;;9.14;97.24
35435;BME280;21556;55.782;37.528;2023-03-15T01:25:46;99076.91;;;8.94;100.00
35435;BME280;21556;55.782;37.528;2023-03-15T01:28:12;99058.44;;;9.57;93.53
35435;BME280;21556;55.782;37.528;2023-03-15T01:30:38;99054.63;;;9.28;95.39
35435;BME280;21556;55.782;37.528;2023-03-15T01:33:06;99066.91;;;9.36;98.05
35435;BME280;21556;55.782;37.528;2023-03-15T01:35:32;99052.25;;;9.49;96.33
35435;BME280;21556;55.782;37.528;2023-03-15T01:37:58;99059.19;;;9.44;98.75
35435;BME280;21556;55.782;37.528;2023-03-15T01:40:27;99063.00;;;8.98;100.00
35435;BME280;21556;55.782;37.528;2023-03-15T01:46:04;99083.91;;;8.98;99.96
35435;BME280;21556;55.782;37.528;2023-03-15T01:48:40;99063.97;;;9.07;100.00
35435;BME280;21556;55.782;37.528;2023-03-15T01:53:59;99070.78;;;8.95;100.00
35435;BME280;21556;55.782;37.528;2023-03-15T01:56:30;99069.44;;;9.29;100.00
35435;BME280;21556;55.782;37.528;2023-03-15T01:58:58;99075.19;;;8.97;100.00
35435;BME280;21556;55.782;37.528;2023-03-15T02:01:26;99080.47;;;9.02;100.00
35435;BME280;21556;55.782;37.528;2023-03-15T02:03:58;99073.06;;;9.40;100.00
35435;BME280;21556;55.782;37.528;2023-03-15T02:06:30;99062.47;;;9.26;100.00
35435;BME280;21556;55.782;37.528;2023-03-15T02:09:03;99056.50;;;9.39;100.00
35435;BME280;21556;55.782;37.528;2023-03-15T02:11:35;99077.81;;;9.75;99.03
35435;BME280;21556;55.782;37.528;2023-03-15T02:14:07;99067.78;;;9.34;100.00
35435;BME280;21556;55.782;37.528;2023-03-15T02:16:36;99074.72;;;9.30;100.00
35435;BME280;21556;55.782;37.528;2023-03-15T02:19:15;99071.25;;;9.33;100.00
35435;BME280;21556;55.782;37.528;2023-03-15T02:24:43;99085.13;;;9.24;100.00
35435;BME280;21556;55.782;37.528;2023-03-15T02:27:12;99086.88;;;8.60;100.00
35435;BME280;21556;55.782;37.528;2023-03-15T02:29:40;99094.25;;;8.88;100.00
35435;BME280;21556;55.782;37.528;2023-03-15T02:32:06;99094.28;;;8.90;100.00
35435;BME280;21556;55.782;37.528;2023-03-15T02:34:39;99075.75;;;9.46;100.00
35435;BME280;21556;55.782;37.528;2023-03-15T02:37:05;99094.88;;;9.37;100.00
35435;BME280;21556;55.782;37.528;2023-03-15T02:39:31;99085.84;;;9.12;100.00
35435;BME280;21556;55.782;37.528;2023-03-15T02:41:57;99078.03;;;9.15;100.00
35435;BME280;21556;55.782;37.528;2023-03-15T02:44:32;99094.50;;;9.07;100.00
35435;BME280;21556;55.782;37.528;2023-03-15T02:47:05;99093.97;;;9.35;100.00
35435;BME280;21556;55.782;37.528;2023-03-15T02:49:38;99084.44;;;9.42;100.00
35435;BME280;21556;55.782;37.528;2023-03-15T02:52:07;99073.47;;;9.80;100.00
35435;BME280;21556;55.782;37.528;2023-03-15T02:54:33;99076.50;;;9.34;100.00
35435;BME280;21556;55.782;37.528;2023-03-15T02:57:00;99077.44;;;9.39;100.00
35435;BME280;21556;55.782;37.528;2023-03-15T02:59:27;99085.97;;;9.23;100.00
35435;BME280;21556;55.782;37.528;2023-03-15T03:01:53;99084.31;;;9.31;100.00
35435;BME280;21556;55.782;37.528;2023-03-15T03:04:19;99065.91;;;9.24;100.00
35435;BME280;21556;55.782;37.528;2023-03-15T03:06:45;99078.09;;;9.20;100.00
35435;BME280;21556;55.782;37.528;2023-03-15T03:09:15;99089.34;;;9.13;100.00
35435;BME280;21556;55.782;37.528;2023-03-15T03:11:42;99082.75;;;9.44;100.00
35435;BME280;21556;55.782;37.528;2023-03-15T03:14:08;99089.38;;;9.18;100.00
35435;BME280;21556;55.782;37.528;2023-03-15T03:16:34;99089.69;;;9.44;100.00
35435;BME280;21556;55.782;37.528;2023-03-15T03:18:59;99089.84;;;9.57;100.00
35435;BME280;21556;55.782;37.528;2023-03-15T03:21:29;99095.06;;;9.54;100.00
35435;BME280;21556;55.782;37.528;2023-03-15T03:23:55;99128.44;;;9.01;100.00
35435;BME280;21556;55.782;37.528;2023-03-15T03:26:21;99093.00;;;9.27;100.00
35435;BME280;21556;55.782;37.528;2023-03-15T03:28:53;99086.94;;;9.31;100.00
35435;BME280;21556;55.782;37.528;2023-03-15T03:31:23;99089.88;;;9.59;100.00
35435;BME280;21556;55.782;37.528;2023-03-15T03:33:51;99083.56;;;9.42;100.00
35435;BME280;21556;55.782;37.528;2023-03-15T03:36:20;99093.09;;;9.36;100.00
35435;BME280;21556;55.782;37.528;2023-03-15T03:38:46;99101.69;;;9.23;100.00
35435;BME280;21556;55.782;37.528;2023-03-15T03:41:13;99094.34;;;9.68;100.00
35435;BME280;21556;55.782;37.528;2023-03-15T03:43:40;99092.84;;;9.13;100.00
35435;BME280;21556;55.782;37.528;2023-03-15T03:46:06;99093.50;;;8.97;100.00
35435;BME280;21556;55.782;37.528;2023-03-15T03:48:36;99100.88;;;9.27;100.00
35435;BME280;21556;55.782;37.528;2023-03-15T03:51:02;99103.41;;;9.21;100.00
35435;BME280;21556;55.782;37.528;2023-03-15T03:53:29;99117.13;;;9.03;100.00
35435;BME280;21556;55.782;37.528;2023-03-15T03:55:55;99111.34;;;9.29;100.00
35435;BME280;21556;55.782;37.528;2023-03-15T03:58:22;99105.72;;;9.00;100.00
35435;BME280;21556;55.782;37.528;2023-03-15T04:00:53;99109.34;;;9.08;100.00
35435;BME280;21556;55.782;37.528;2023-03-15T04:03:19;99114.25;;;9.53;100.00
35435;BME280;21556;55.782;37.528;2023-03-15T04:05:57;99117.41;;;9.23;100.00
35435;BME280;21556;55.782;37.528;2023-03-15T04:08:24;99110.31;;;9.16;100.00
35435;BME280;21556;55.782;37.528;2023-03-15T04:10:52;99119.38;;;8.77;100.00
35435;BME280;21556;55.782;37.528;2023-03-15T04:13:39;99113.91;;;9.23;100.00
35435;BME280;21556;55.782;37.528;2023-03-15T04:16:08;99128.63;;;8.54;100.00
35435;BME280;21556;55.782;37.528;2023-03-15T04:18:55;99104.59;;;9.48;100.00
35435;BME280;21556;55.782;37.528;2023-03-15T04:21:24;99105.56;;;9.56;100.00
35435;BME280;21556;55.782;37.528;2023-03-15T04:23:54;99101.91;;;9.42;100.00
35435;BME280;21556;55.782;37.528;2023-03-15T04:26:42;99118.34;;;8.66;100.00
35435;BME280;21556;55.782;37.528;2023-03-15T04:29:35;99121.72;;;9.21;100.00
35435;BME280;21556;55.782;37.528;2023-03-15T04:32:23;99115.69;;;9.27;100.00
35435;BME280;21556;55.782;37.528;2023-03-15T04:34:58;99105.03;;;9.13;100.00
35435;BME280;21556;55.782;37.528;2023-03-15T04:37:50;99124.81;;;8.92;100.00
35435;BME280;21556;55.782;37.528;2023-03-15T04:40:32;99117.47;;;9.31;100.00
35435;BME280;21556;55.782;37.528;2023-03-15T04:43:20;99141.22;;;8.81;100.00
35435;BME280;21556;55.782;37.528;2023-03-15T04:46:13;99129.94;;;8.83;100.00
35435;BME280;21556;55.782;37.528;2023-03-15T04:49:01;99139.53;;;8.86;100.00
35435;BME280;21556;55.782;37.528;2023-03-15T04:51:51;99133.69;;;9.01;100.00
35435;BME280;21556;55.782;37.528;2023-03-15T04:54:37;99127.31;;;9.50;100.00
35435;BME280;21556;55.782;37.528;2023-03-15T04:57:20;99141.78;;;8.60;100.00
35435;BME280;21556;55.782;37.528;2023-03-15T05:00:19;99150.88;;;8.83;100.00
35435;BME280;21556;55.782;37.528;2023-03-15T05:03:06;99146.47;;;9.45;100.00
35435;BME280;21556;55.782;37.528;2023-03-15T05:05:45;99156.31;;;8.97;100.00
35435;BME280;21556;55.782;37.528;2023-03-15T05:08:29;99180.06;;;9.14;100.00
35435;BME280;21556;55.782;37.528;2023-03-15T05:11:23;99157.06;;;8.91;100.00
35435;BME280;21556;55.782;37.528;2023-03-15T05:14:00;99177.72;;;8.73;100.00
35435;BME280;21556;55.782;37.528;2023-03-15T05:16:37;99166.09;;;9.12;100.00
35435;BME280;21556;55.782;37.528;2023-03-15T05:19:22;99160.59;;;9.62;98.61
35435;BME280;21556;55.782;37.528;2023-03-15T05:22:06;99174.16;;;9.27;100.00
35435;BME280;21556;55.782;37.528;2023-03-15T05:24:38;99174.38;;;9.44;100.00
35435;BME280;21556;55.782;37.528;2023-03-15T05:27:32;99167.19;;;9.28;100.00
35435;BME280;21556;55.782;37.528;2023-03-15T05:30:22;99189.69;;;9.15;100.00
35435;BME280;21556;55.782;37.528;2023-03-15T05:33:20;99174.34;;;9.43;98.87
35435;BME280;21556;55.782;37.528;2023-03-15T05:36:06;99181.00;;;9.91;94.58
35435;BME280;21556;55.782;37.528;2023-03-15T05:38:48;99194.56;;;9.54;97.56
35435;BME280;21556;55.782;37.528;2023-03-15T05:41:40;99182.38;;;10.32;90.85
35435;BME280;21556;55.782;37.528;2023-03-15T05:44:28;99188.06;;;10.89;85.23
35435;BME280;21556;55.782;37.528;2023-03-15T05:47:14;99187.16;;;10.84;84.24
35435;BME280;21556;55.782;37.528;2023-03-15T05:50:04;99190.09;;;10.23;89.10
35435;BME280;21556;55.782;37.528;2023-03-15T05:53:05;99198.22;;;10.46;85.97
35435;BME280;21556;55.782;37.528;2023-03-15T05:55:56;99214.47;;;11.14;80.68
35435;BME280;21556;55.782;37.528;2023-03-15T05:59:00;99185.00;;;11.71;72.28
35435;BME280;21556;55.782;37.528;2023-03-15T06:01:45;99197.28;;;11.74;71.37
35435;BME280;21556;55.782;37.528;2023-03-15T06:04:21;99179.00;;;12.00;68.95
35435;BME280;21556;55.782;37.528;2023-03-15T06:06:48;99186.88;;;13.45;58.33
35435;BME280;21556;55.782;37.528;2023-03-15T06:09:14;99207.91;;;13.59;55.07
35435;BME280;21556;55.782;37.528;2023-03-15T06:11:40;99182.56;;;12.45;59.45
35435;BME280;21556;55.782;37.528;2023-03-15T06:14:08;99161.06;;;14.16;49.03
35435;BME280;21556;55.782;37.528;2023-03-15T06:16:47;99180.56;;;15.06;45.88
35435;BME280;21556;55.782;37.528;2023-03-15T06:19:13;99157.25;;;16.16;41.06
35435;BME280;21556;55.782;37.528;2023-03-15T06:21:39;99164.16;;;16.25;40.07
35435;BME280;21556;55.782;37.528;2023-03-15T06:24:11;99162.78;;;16.55;38.59
35435;BME280;21556;55.782;37.528;2023-03-15T06:26:37;99153.34;;;16.94;37.61
35435;BME280;21556;55.782;37.528;2023-03-15T06:29:04;99154.88;;;17.52;37.07
35435;BME280;21556;55.782;37.528;2023-03-15T06:31:31;99165.94;;;16.80;37.79
35435;BME280;21556;55.782;37.528;2023-03-15T06:34:03;99165.22;;;17.21;36.03
35435;BME280;21556;55.782;37.528;2023-03-15T06:36:28;99161.16;;;17.48;35.54
35435;BME280;21556;55.782;37.528;2023-03-15T06:38:56;99191.78;;;16.64;37.28
35435;BME280;21556;55.782;37.528;2023-03-15T06:41:21;99166.63;;;16.91;36.65
35435;BME280;21556;55.782;37.528;2023-03-15T06:43:52;99180.94;;;16.81;37.42
35435;BME280;21556;55.782;37.528;2023-03-15T06:46:18;99189.00;;;14.50;43.81
35435;BME280;21556;55.782;37.528;2023-03-15T06:48:44;99210.41;;;15.19;42.60
35435;BME280;21556;55.782;37.528;2023-03-15T06:51:11;99193.22;;;15.61;42.38
35435;BME280;21556;55.782;37.528;2023-03-15T06:53:37;99217.69;;;14.91;42.91
35435;BME280;21556;55.782;37.528;2023-03-15T06:56:03;99186.09;;;16.34;39.74
35435;BME280;21556;55.782;37.528;2023-03-15T06:58:29;99195.78;;;15.68;41.60
35435;BME280;21556;55.782;37.528;2023-03-15T07:00:55;99197.84;;;16.12;39.35
35435;BME280;21556;55.782;37.528;2023-03-15T07:03:21;99185.66;;;16.60;38.49
35435;BME280;21556;55.782;37.528;2023-03-15T07:05:48;99202.31;;;16.69;39.02
35435;BME280;21556;55.782;37.528;2023-03-15T07:08:17;99189.44;;;17.01;38.03
35435;BME280;21556;55.782;37.528;2023-03-15T07:10:44;99204.06;;;16.09;39.02
35435;BME280;21556;55.782;37.528;2023-03-15T07:13:11;99204.84;;;16.18;40.16
35435;BME280;21556;55.782;37.528;2023-03-15T07:15:38;99207.59;;;16.08;40.09
35435;BME280;21556;55.782;37.528;2023-03-15T07:18:05;99223.06;;;14.80;45.80
35435;BME280;21556;55.782;37.528;2023-03-15T07:20:31;99228.66;;;15.44;44.61
35435;BME280;21556;55.782;37.528;2023-03-15T07:22:57;99224.63;;;15.03;45.50
35435;BME280;21556;55.782;37.528;2023-03-15T07:25:23;99233.03;;;14.34;49.43
35435;BME280;21556;55.782;37.528;2023-03-15T07:27:57;99245.09;;;14.76;46.21
35435;BME280;21556;55.782;37.528;2023-03-15T07:30:24;99236.59;;;15.39;44.79
35435;BME280;21556;55.782;37.528;2023-03-15T07:32:49;99235.66;;;16.23;42.42
35435;BME280;21556;55.782;37.528;2023-03-15T07:35:15;99227.88;;;15.31;44.50
35435;BME280;21556;55.782;37.528;2023-03-15T07:37:42;99239.84;;;14.70;48.27
35435;BME280;21556;55.782;37.528;2023-03-15T07:40:11;99225.28;;;15.29;45.50
35435;BME280;21556;55.782;37.528;2023-03-15T07:42:38;99234.16;;;15.17;47.45
35435;BME280;21556;55.782;37.528;2023-03-15T07:45:06;99245.97;;;14.77;49.70
35435;BME280;21556;55.782;37.528;2023-03-15T07:47:34;99228.88;;;13.94;51.28
35435;BME280;21556;55.782;37.528;2023-03-15T07:49:59;99239.16;;;14.37;52.06
35435;BME280;21556;55.782;37.528;2023-03-15T07:52:25;99236.00;;;13.69;54.60
35435;BME280;21556;55.782;37.528;2023-03-15T07:54:52;99235.84;;;14.09;56.08
35435;BME280;21556;55.782;37.528;2023-03-15T07:57:18;99244.88;;;13.32;63.14
35435;BME280;21556;55.782;37.528;2023-03-15T07:59:45;99260.69;;;13.01;69.42
35435;BME280;21556;55.782;37.528;2023-03-15T08:02:12;99249.91;;;14.01;59.46
35435;BME280;21556;55.782;37.528;2023-03-15T08:04:39;99261.38;;;13.95;57.96
35435;BME280;21556;55.782;37.528;2023-03-15T08:07:05;99243.53;;;14.41;54.49
35435;BME280;21556;55.782;37.528;2023-03-15T08:09:32;99249.91;;;14.10;56.54
35435;BME280;21556;55.782;37.528;2023-03-15T08:11:59;99258.81;;;13.78;59.13
35435;BME280;21556;55.782;37.528;2023-03-15T08:14:25;99257.00;;;13.95;58.33
35435;BME280;21556;55.782;37.528;2023-03-15T08:16:51;99272.09;;;13.15;64.84
35435;BME280;21556;55.782;37.528;2023-03-15T08:19:17;99268.53;;;12.55;71.41
35435;BME280;21556;55.782;37.528;2023-03-15T08:21:43;99293.97;;;12.50;70.85
35435;BME280;21556;55.782;37.528;2023-03-15T08:24:11;99277.09;;;11.94;75.90
35435;BME280;21556;55.782;37.528;2023-03-15T08:26:37;99290.25;;;11.90;79.25
35435;BME280;21556;55.782;37.528;2023-03-15T08:29:03;99286.41;;;11.34;83.83
35435;BME280;21556;55.782;37.528;2023-03-15T08:31:30;99288.47;;;11.84;79.72
35435;BME280;21556;55.782;37.528;2023-03-15T08:33:55;99291.88;;;11.75;80.47
35435;BME280;21556;55.782;37.528;2023-03-15T08:36:21;99297.13;;;11.69;81.21
35435;BME280;21556;55.782;37.528;2023-03-15T08:38:47;99300.63;;;11.70;83.57
35435;BME280;21556;55.782;37.528;2023-03-15T08:41:13;99281.38;;;11.75;83.51
35435;BME280;21556;55.782;37.528;2023-03-15T08:43:39;99272.81;;;12.12;80.24
35435;BME280;21556;55.782;37.528;2023-03-15T08:46:05;99296.19;;;11.60;85.37
35435;BME280;21556;55.782;37.528;2023-03-15T08:48:31;99284.25;;;12.26;80.31
35435;BME280;21556;55.782;37.528;2023-03-15T08:51:04;99292.91;;;11.96;85.30
35435;BME280;21556;55.782;37.528;2023-03-15T08:53:30;99286.63;;;11.75;88.70
35435;BME280;21556;55.782;37.528;2023-03-15T08:55:57;99295.53;;;12.00;84.13
35435;BME280;21556;55.782;37.528;2023-03-15T08:58:23;99289.44;;;12.04;86.90
35435;BME280;21556;55.782;37.528;2023-03-15T09:00:50;99291.16;;;11.96;87.94
35435;BME280;21556;55.782;37.528;2023-03-15T09:03:18;99285.22;;;12.57;82.84
35435;BME280;21556;55.782;37.528;2023-03-15T09:05:44;99279.00;;;12.26;88.66
35435;BME280;21556;55.782;37.528;2023-03-15T09:08:09;99285.91;;;11.99;89.38
35435;BME280;21556;55.782;37.528;2023-03-15T09:10:35;99286.63;;;11.69;92.47
35435;BME280;21556;55.782;37.528;2023-03-15T09:13:01;99283.00;;;11.53;94.69
35435;BME280;21556;55.782;37.528;2023-03-15T09:15:27;99282.06;;;11.41;96.97
35435;BME280;21556;55.782;37.528;2023-03-15T09:17:53;99290.69;;;11.23;100.00
35435;BME280;21556;55.782;37.528;2023-03-15T09:20:20;99272.41;;;11.40;100.00
35435;BME280;21556;55.782;37.528;2023-03-15T09:22:52;99261.22;;;11.76;98.97
35435;BME280;21556;55.782;37.528;2023-03-15T09:25:19;99272.25;;;11.17;100.00
35435;BME280;21556;55.782;37.528;2023-03-15T09:27:45;99283.53;;;11.00;100.00
35435;BME280;21556;55.782;37.528;2023-03-15T09:30:12;99275.97;;;11.45;100.00
35435;BME280;21556;55.782;37.528;2023-03-15T09:32:38;99282.03;;;11.39;100.00
35435;BME280;21556;55.782;37.528;2023-03-15T09:35:06;99275.75;;;11.11;100.00
35435;BME280;21556;55.782;37.528;2023-03-15T09:37:33;99282.25;;;11.73;100.00
35435;BME280;21556;55.782;37.528;2023-03-15T09:39:59;99268.38;;;12.00;99.12
35435;BME280;21556;55.782;37.528;2023-03-15T09:42:41;99276.81;;;11.42;100.00
35435;BME280;21556;55.782;37.528;2023-03-15T09:50:47;99276.19;;;11.86;100.00
35435;BME280;21556;55.782;37.528;2023-03-15T09:53:25;99265.03;;;12.50;96.85
35435;BME280;21556;55.782;37.528;2023-03-15T09:55:53;99271.97;;;12.20;98.93
35435;BME280;21556;55.782;37.528;2023-03-15T09:58:25;99281.56;;;12.09;99.86
35435;BME280;21556;55.782;37.528;2023-03-15T10:00:56;99293.38;;;11.32;100.00
35435;BME280;21556;55.782;37.528;2023-03-15T10:03:46;99286.66;;;11.80;100.00
35435;BME280;21556;55.782;37.528;2023-03-15T10:06:21;99285.75;;;11.70;100.00
35435;BME280;21556;55.782;37.528;2023-03-15T10:08:56;99272.63;;;11.75;100.00
35435;BME280;21556;55.782;37.528;2023-03-15T10:11:38;99279.81;;;12.11;99.94
35435;BME280;21556;55.782;37.528;2023-03-15T10:14:29;99265.88;;;12.40;99.28
35435;BME280;21556;55.782;37.528;2023-03-15T10:17:14;99257.09;;;12.36;96.15
35435;BME280;21556;55.782;37.528;2023-03-15T10:20:25;99290.25;;;11.91;100.00
35435;BME280;21556;55.782;37.528;2023-03-15T10:25:27;99275.56;;;12.70;97.22
35435;BME280;21556;55.782;37.528;2023-03-15T10:30:28;99266.81;;;12.86;92.40
35435;BME280;21556;55.782;37.528;2023-03-15T10:35:44;99261.53;;;12.98;91.94
35435;BME280;21556;55.782;37.528;2023-03-15T10:38:19;99268.56;;;13.10;92.49
35435;BME280;21556;55.782;37.528;2023-03-15T10:40:50;99273.81;;;12.69;97.08
35435;BME280;21556;55.782;37.528;2023-03-15T10:43:22;99275.59;;;12.93;96.17
35435;BME280;21556;55.782;37.528;2023-03-15T10:46:13;99280.75;;;12.38;98.57
35435;BME280;21556;55.782;37.528;2023-03-15T10:48:59;99268.53;;;12.53;97.65
35435;BME280;21556;55.782;37.528;2023-03-15T10:51:30;99265.91;;;12.57;98.54
35435;BME280;21556;55.782;37.528;2023-03-15T10:54:17;99264.19;;;12.71;95.70
35435;BME280;21556;55.782;37.528;2023-03-15T10:57:02;99276.47;;;13.29;92.14
35435;BME280;21556;55.782;37.528;2023-03-15T10:59:32;99253.66;;;13.26;92.82
35435;BME280;21556;55.782;37.528;2023-03-15T11:04:40;99258.03;;;13.01;91.50
35435;BME280;21556;55.782;37.528;2023-03-15T11:07:07;99256.16;;;13.80;88.68
35435;BME280;21556;55.782;37.528;2023-03-15T11:12:09;99258.94;;;13.37;91.59
35435;BME280;21556;55.782;37.528;2023-03-15T11:14:43;99275.56;;;12.96;93.88
35435;BME280;21556;55.782;37.528;2023-03-15T11:17:27;99260.66;;;13.41;91.59
35435;BME280;21556;55.782;37.528;2023-03-15T11:22:43;99268.53;;;12.63;98.14
35435;BME280;21556;55.782;37.528;2023-03-15T11:25:14;99276.47;;;13.19;94.59
35435;BME280;21556;55.782;37.528;2023-03-15T11:27:41;99265.00;;;13.54;92.35
35435;BME280;21556;55.782;37.528;2023-03-15T11:30:17;99262.41;;;13.48;91.33
35435;BME280;21556;55.782;37.528;2023-03-15T11:32:46;99255.38;;;13.47;91.60
35435;BME280;21556;55.782;37.528;2023-03-15T11:35:25;99268.56;;;13.44;91.50
35435;BME280;21556;55.782;37.528;2023-03-15T11:37:56;99269.44;;;13.41;92.73
35435;BME280;21556;55.782;37.528;2023-03-15T11:40:35;99265.06;;;12.97;95.82
35435;BME280;21556;55.782;37.528;2023-03-15T11:43:19;99268.53;;;12.58;100.00
35435;BME280;21556;55.782;37.528;2023-03-15T11:45:57;99276.47;;;12.83;99.05
35435;BME280;21556;55.782;37.528;2023-03-15T11:48:54;99258.03;;;12.69;99.32
35435;BME280;21556;55.782;37.528;2023-03-15T11:51:22;99250.13;;;12.64;99.33
35435;BME280;21556;55.782;37.528;2023-03-15T11:56:53;99243.13;;;12.72;100.00
35435;BME280;21556;55.782;37.528;2023-03-15T11:59:24;99248.38;;;12.88;100.00
35435;BME280;21556;55.782;37.528;2023-03-15T12:02:33;99237.84;;;12.74;99.82
35435;BME280;21556;55.782;37.528;2023-03-15T12:04:45;99249.25;;;12.91;99.69
35435;BME280;21556;55.782;37.528;2023-03-15T12:09:51;99256.25;;;12.43;100.00
35435;BME280;21556;55.782;37.528;2023-03-15T12:17:56;99266.81;;;12.97;99.58
35435;BME280;21556;55.782;37.528;2023-03-15T12:28:38;99287.75;;;12.25;100.00
35435;BME280;21556;55.782;37.528;2023-03-15T12:31:08;99269.38;;;12.37;100.00
35435;BME280;21556;55.782;37.528;2023-03-15T12:33:49;99269.38;;;12.39;100.00
35435;BME280;21556;55.782;37.528;2023-03-15T12:36:29;99273.78;;;12.47;100.00
35435;BME280;21556;55.782;37.528;2023-03-15T12:41:47;99298.91;;;11.78;100.00
35435;BME280;21556;55.782;37.528;2023-03-15T12:44:36;99273.63;;;11.95;100.00
35435;BME280;21556;55.782;37.528;2023-03-15T12:47:04;99299.09;;;12.16;100.00
35435;BME280;21556;55.782;37.528;2023-03-15T12:49:39;99285.88;;;11.89;100.00
35435;BME280;21556;55.782;37.528;2023-03-15T12:52:24;99296.91;;;11.36;100.00
35435;BME280;21556;55.782;37.528;2023-03-15T12:55:02;99298.56;;;11.24;100.00
35435;BME280;21556;55.782;37.528;2023-03-15T12:57:36;99290.09;;;11.67;100.00
35435;BME280;21556;55.782;37.528;2023-03-15T13:00:06;99280.66;;;12.04;100.00
35435;BME280;21556;55.782;37.528;2023-03-15T13:02:44;99301.78;;;12.22;100.00
35435;BME280;21556;55.782;37.528;2023-03-15T13:08:18;99309.22;;;11.44;100.00
35435;BME280;21556;55.782;37.528;2023-03-15T13:18:57;99273.59;;;11.94;100.00
35435;BME280;21556;55.782;37.528;2023-03-15T13:21:25;99267.16;;;11.37;100.00
35435;BME280;21556;55.782;37.528;2023-03-15T13:23:56;99269.06;;;11.65;100.00
35435;BME280;21556;55.782;37.528;2023-03-15T13:29:13;99278.53;;;11.37;100.00
35435;BME280;21556;55.782;37.528;2023-03-15T13:31:43;99269.06;;;11.65;100.00
35435;BME280;21556;55.782;37.528;2023-03-15T13:34:18;99267.34;;;11.70;100.00
35435;BME280;21556;55.782;37.528;2023-03-15T13:36:47;99263.84;;;11.71;100.00
35435;BME280;21556;55.782;37.528;2023-03-15T13:39:21;99263.19;;;12.18;100.00
35435;BME280;21556;55.782;37.528;2023-03-15T13:41:55;99257.84;;;11.94;100.00
35435;BME280;21556;55.782;37.528;2023-03-15T13:44:22;99257.97;;;12.34;100.00
35435;BME280;21556;55.782;37.528;2023-03-15T13:46:51;99256.16;;;12.11;100.00
35435;BME280;21556;55.782;37.528;2023-03-15T13:49:18;99270.91;;;11.83;100.00
35435;BME280;21556;55.782;37.528;2023-03-15T13:51:46;99265.56;;;11.66;100.00
35435;BME280;21556;55.782;37.528;2023-03-15T13:54:28;99256.97;;;11.92;100.00
35435;BME280;21556;55.782;37.528;2023-03-15T13:57:12;99257.88;;;12.08;100.00
35435;BME280;21556;55.782;37.528;2023-03-15T14:02:22;99264.00;;;12.05;100.00
35435;BME280;21556;55.782;37.528;2023-03-15T14:04:55;99250.09;;;12.37;100.00
35435;BME280;21556;55.782;37.528;2023-03-15T14:07:36;99257.03;;;12.19;100.00
35435;BME280;21556;55.782;37.528;2023-03-15T14:12:42;99261.41;;;12.11;100.00
35435;BME280;21556;55.782;37.528;2023-03-15T14:15:19;99257.06;;;12.13;100.00
35435;BME280;21556;55.782;37.528;2023-03-15T14:18:14;99262.09;;;11.73;100.00
35435;BME280;21556;55.782;37.528;2023-03-15T14:21:01;99262.38;;;12.47;100.00
35435;BME280;21556;55.782;37.528;2023-03-15T14:23:29;99271.94;;;12.10;100.00
35435;BME280;21556;55.782;37.528;2023-03-15T14:26:04;99275.19;;;11.64;100.00
35435;BME280;21556;55.782;37.528;2023-03-15T14:28:32;99271.31;;;11.07;100.00